createdAt,value
2023-06-30T00:01:51.896Z,5.82
2023-06-30T00:04:19.658Z,4.07
2023-06-30T00:06:52.652Z,5.25
2023-06-30T00:09:23.099Z,4.75
2023-06-30T00:11:58.028Z,4.00
2023-06-30T00:14:28.312Z,4.32
2023-06-30T00:16:58.041Z,4.30
2023-06-30T00:19:26.452Z,4.80
2023-06-30T00:21:54.105Z,4.90
2023-06-30T00:24:21.126Z,4.47
2023-06-30T00:26:48.958Z,4.78
2023-06-30T00:29:15.903Z,6.22
2023-06-30T00:31:42.842Z,4.97
2023-06-30T00:34:09.814Z,5.50
2023-06-30T00:36:36.848Z,5.78
2023-06-30T00:39:04.068Z,5.40
2023-06-30T00:41:31.272Z,5.15
2023-06-30T00:43:59.537Z,6.10
2023-06-30T00:46:27.084Z,4.78
2023-06-30T00:48:54.138Z,4.85
2023-06-30T00:51:21.358Z,6.13
2023-06-30T00:53:48.855Z,4.68
2023-06-30T00:56:15.959Z,4.35
2023-06-30T00:58:43.592Z,4.00
2023-06-30T01:01:25.453Z,4.80
2023-06-30T01:04:19.541Z,4.65
2023-06-30T01:06:58.181Z,4.30
2023-06-30T01:09:34.190Z,5.07
2023-06-30T01:12:01.815Z,5.07
2023-06-30T01:14:32.767Z,4.47
2023-06-30T01:17:02.409Z,7.45
2023-06-30T01:19:38.548Z,4.72
2023-06-30T01:22:41.086Z,4.82
2023-06-30T01:25:12.485Z,5.68
2023-06-30T01:27:43.660Z,7.38
2023-06-30T01:30:11.685Z,4.65
2023-06-30T01:32:39.301Z,5.45
2023-06-30T01:35:06.464Z,5.40
2023-06-30T01:37:33.594Z,4.70
2023-06-30T01:40:05.223Z,4.50
2023-06-30T01:42:32.986Z,4.55
2023-06-30T01:45:01.140Z,4.97
2023-06-30T01:47:29.085Z,5.60
2023-06-30T01:49:58.826Z,4.43
2023-06-30T01:52:28.869Z,5.07
2023-06-30T01:54:56.447Z,4.75
2023-06-30T01:57:27.018Z,4.93
2023-06-30T01:59:53.922Z,4.40
2023-06-30T02:02:21.161Z,5.70
2023-06-30T02:04:48.148Z,4.80
2023-06-30T02:07:15.733Z,5.25
2023-06-30T02:09:49.373Z,4.65
2023-06-30T02:12:17.096Z,4.97
2023-06-30T02:14:47.165Z,6.63
2023-06-30T02:17:14.733Z,5.30
2023-06-30T02:19:43.369Z,6.32
2023-06-30T02:22:10.302Z,4.90
2023-06-30T02:24:38.036Z,6.32
2023-06-30T02:27:05.133Z,4.72
2023-06-30T02:29:32.488Z,4.63
2023-06-30T02:32:02.642Z,4.82
2023-06-30T02:34:29.816Z,5.13
2023-06-30T02:37:00.636Z,5.28
2023-06-30T02:39:28.387Z,5.75
2023-06-30T02:41:55.290Z,3.85
2023-06-30T02:44:22.259Z,4.05
2023-06-30T02:46:51.604Z,5.07
2023-06-30T02:49:19.800Z,4.63
2023-06-30T02:51:46.748Z,5.35
2023-06-30T02:54:13.643Z,5.85
2023-06-30T02:56:40.563Z,4.47
2023-06-30T02:59:07.520Z,4.50
2023-06-30T03:01:36.196Z,5.97
2023-06-30T03:04:05.457Z,5.90
2023-06-30T03:06:32.767Z,6.40
2023-06-30T03:09:01.952Z,4.35
2023-06-30T03:11:29.048Z,6.53
2023-06-30T03:13:56.003Z,4.65
2023-06-30T03:16:22.942Z,4.30
2023-06-30T03:18:50.022Z,4.93
2023-06-30T03:21:27.779Z,4.63
2023-06-30T03:23:54.744Z,4.38
2023-06-30T03:26:21.633Z,4.80
2023-06-30T03:28:50.272Z,5.13
2023-06-30T03:31:20.330Z,6.32
2023-06-30T03:33:47.774Z,5.20
2023-06-30T03:36:18.836Z,5.25
2023-06-30T03:38:45.752Z,4.70
2023-06-30T03:41:20.322Z,5.03
2023-06-30T03:43:48.479Z,4.50
2023-06-30T03:46:18.499Z,4.57
2023-06-30T03:48:45.893Z,4.03
2023-06-30T03:51:12.836Z,4.07
2023-06-30T03:53:39.789Z,5.03
2023-06-30T03:56:06.799Z,4.55
2023-06-30T03:58:33.730Z,5.50
2023-06-30T04:01:05.234Z,5.10
2023-06-30T04:03:32.457Z,6.30
2023-06-30T04:05:59.524Z,4.25
2023-06-30T04:08:27.274Z,5.40
2023-06-30T04:10:54.469Z,4.88
2023-06-30T04:13:21.460Z,4.40
2023-06-30T04:15:48.520Z,5.18
2023-06-30T04:18:15.429Z,5.75
2023-06-30T04:20:42.307Z,4.85
2023-06-30T04:23:09.212Z,5.80
2023-06-30T04:25:37.047Z,7.78
2023-06-30T04:28:04.012Z,5.57
2023-06-30T04:30:30.956Z,4.65
2023-06-30T04:32:59.284Z,4.70
2023-06-30T04:35:26.668Z,5.07
2023-06-30T04:37:54.149Z,6.88
2023-06-30T04:40:21.430Z,5.38
2023-06-30T04:42:51.414Z,4.40
2023-06-30T04:45:19.269Z,4.82
2023-06-30T04:47:46.417Z,5.30
2023-06-30T04:50:13.560Z,5.22
2023-06-30T04:52:40.533Z,6.70
2023-06-30T04:55:09.060Z,6.13
2023-06-30T04:57:36.057Z,6.07
2023-06-30T05:00:03.354Z,6.45
2023-06-30T05:02:30.635Z,4.93
2023-06-30T05:04:57.591Z,6.72
2023-06-30T05:07:24.559Z,6.13
2023-06-30T05:09:51.576Z,5.10
2023-06-30T05:12:18.609Z,4.35
2023-06-30T05:14:45.562Z,7.22
2023-06-30T05:17:12.769Z,5.65
2023-06-30T05:19:39.816Z,5.47
2023-06-30T05:22:07.375Z,5.38
2023-06-30T05:24:34.684Z,5.93
2023-06-30T05:27:04.110Z,5.03
2023-06-30T05:29:35.504Z,6.05
2023-06-30T05:32:02.635Z,5.35
2023-06-30T05:34:31.283Z,4.82
2023-06-30T05:36:58.576Z,7.00
2023-06-30T05:39:27.357Z,11.73
2023-06-30T05:41:56.779Z,5.10
2023-06-30T05:44:23.780Z,4.78
2023-06-30T05:46:51.200Z,9.75
2023-06-30T05:49:18.383Z,5.68
2023-06-30T05:51:45.366Z,7.68
2023-06-30T05:54:12.306Z,5.05
2023-06-30T05:56:41.806Z,4.63
2023-06-30T05:59:11.577Z,4.43
2023-06-30T06:01:43.401Z,6.97
2023-06-30T06:04:12.099Z,6.57
2023-06-30T06:06:39.522Z,5.25
2023-06-30T06:09:06.601Z,5.50
2023-06-30T06:11:33.539Z,4.15
2023-06-30T06:14:00.601Z,6.75
2023-06-30T06:16:27.690Z,6.13
2023-06-30T06:18:58.378Z,5.03
2023-06-30T06:21:29.037Z,6.85
2023-06-30T06:24:03.670Z,5.60
2023-06-30T06:26:30.558Z,5.95
2023-06-30T06:28:57.467Z,7.82
2023-06-30T06:31:26.066Z,9.98
2023-06-30T06:33:55.072Z,6.70
2023-06-30T06:36:23.050Z,6.03
2023-06-30T06:38:50.158Z,6.07
2023-06-30T06:41:17.088Z,5.22
2023-06-30T06:43:44.111Z,7.53
2023-06-30T06:46:11.096Z,7.75
2023-06-30T06:48:38.314Z,7.18
2023-06-30T06:51:08.673Z,4.35
2023-06-30T06:53:36.572Z,5.47
2023-06-30T06:56:05.089Z,7.00
2023-06-30T06:58:42.249Z,7.28
2023-06-30T07:01:11.703Z,5.70
2023-06-30T07:03:40.563Z,9.38
2023-06-30T07:06:10.619Z,8.13
2023-06-30T07:08:41.705Z,5.65
2023-06-30T07:11:12.544Z,8.05
2023-06-30T07:13:41.309Z,5.15
2023-06-30T07:16:08.339Z,6.10
2023-06-30T07:18:35.895Z,6.43
2023-06-30T07:21:03.322Z,6.60
2023-06-30T07:23:30.256Z,7.88
2023-06-30T07:25:57.195Z,6.53
2023-06-30T07:28:26.542Z,11.35
2023-06-30T07:30:54.137Z,6.75
2023-06-30T07:33:21.338Z,9.98
2023-06-30T07:35:48.668Z,6.60
2023-06-30T07:38:16.075Z,6.90
2023-06-30T07:43:16.096Z,6.55
2023-06-30T07:45:43.315Z,11.80
2023-06-30T07:48:10.529Z,7.25
2023-06-30T07:50:38.092Z,6.55
2023-06-30T07:53:10.322Z,6.00
2023-06-30T07:55:37.277Z,7.53
2023-06-30T07:58:04.214Z,6.97
2023-06-30T08:00:31.819Z,7.70
2023-06-30T08:03:02.129Z,5.97
2023-06-30T08:05:29.231Z,5.55
2023-06-30T08:07:56.335Z,7.43
2023-06-30T08:10:23.727Z,9.93
2023-06-30T08:12:50.710Z,6.78
2023-06-30T08:15:20.610Z,12.68
2023-06-30T08:17:51.973Z,13.63
2023-06-30T08:20:22.891Z,8.98
2023-06-30T08:22:52.742Z,9.35
2023-06-30T08:25:26.665Z,7.68
2023-06-30T08:27:53.940Z,7.20
2023-06-30T08:30:24.090Z,10.43
2023-06-30T08:32:52.612Z,8.27
2023-06-30T08:35:19.786Z,7.78
2023-06-30T08:37:51.977Z,6.95
2023-06-30T08:40:30.688Z,10.68
2023-06-30T08:43:01.072Z,15.43
2023-06-30T08:45:29.622Z,10.10
2023-06-30T08:48:01.782Z,13.40
2023-06-30T08:50:31.821Z,12.75
2023-06-30T08:53:00.382Z,9.38
2023-06-30T08:55:28.086Z,10.32
2023-06-30T08:58:00.678Z,8.38
2023-06-30T09:00:32.886Z,7.55
2023-06-30T09:03:05.563Z,9.35
2023-06-30T09:05:38.000Z,7.10
2023-06-30T09:08:11.386Z,6.07
2023-06-30T09:10:39.570Z,6.22
2023-06-30T09:13:07.714Z,6.57
2023-06-30T09:15:35.166Z,7.18
2023-06-30T09:18:02.876Z,6.03
2023-06-30T09:20:29.818Z,5.95
2023-06-30T09:22:57.818Z,6.43
2023-06-30T09:25:27.668Z,5.40
2023-06-30T09:27:56.248Z,6.20
2023-06-30T09:30:37.322Z,6.70
2023-06-30T09:33:07.243Z,5.57
2023-06-30T09:35:50.000Z,6.32
2023-06-30T09:38:23.516Z,6.13
2023-06-30T09:40:52.340Z,8.43
2023-06-30T09:43:22.211Z,5.53
2023-06-30T09:45:56.678Z,8.07
2023-06-30T09:48:36.398Z,7.07
2023-06-30T09:51:03.611Z,6.18
2023-06-30T09:53:42.798Z,6.20
2023-06-30T09:56:10.551Z,9.35
2023-06-30T09:58:40.427Z,5.45
2023-06-30T10:01:09.837Z,7.32
2023-06-30T10:03:49.070Z,8.98
2023-06-30T10:06:24.019Z,6.25
2023-06-30T10:08:55.241Z,5.55
2023-06-30T10:11:25.257Z,5.70
2023-06-30T10:13:55.936Z,7.70
2023-06-30T10:16:25.500Z,6.20
2023-06-30T10:18:54.328Z,7.47
2023-06-30T10:21:21.250Z,7.47
2023-06-30T10:23:49.556Z,7.95
2023-06-30T10:26:21.325Z,7.25
2023-06-30T10:28:49.040Z,6.03
2023-06-30T10:31:17.138Z,15.75
2023-06-30T10:33:46.302Z,7.30
2023-06-30T10:36:14.803Z,7.35
2023-06-30T10:38:44.569Z,6.55
2023-06-30T10:41:21.127Z,5.57
2023-06-30T10:44:03.386Z,7.03
2023-06-30T10:46:49.631Z,6.15
2023-06-30T10:49:19.513Z,6.22
2023-06-30T10:51:50.086Z,5.75
2023-06-30T10:54:26.524Z,5.47
2023-06-30T10:57:05.958Z,5.90
2023-06-30T10:59:41.144Z,6.03
2023-06-30T11:02:17.992Z,5.85
2023-06-30T11:04:49.270Z,5.50
2023-06-30T11:07:26.070Z,6.82
2023-06-30T11:09:53.017Z,6.20
2023-06-30T11:12:21.479Z,6.68
2023-06-30T11:15:06.269Z,6.18
2023-06-30T11:17:51.786Z,6.40
2023-06-30T11:20:19.583Z,5.18
2023-06-30T11:23:18.022Z,6.88
2023-06-30T11:25:45.008Z,5.88
2023-06-30T11:28:13.424Z,7.05
2023-06-30T11:30:43.009Z,5.95
2023-06-30T11:33:10.103Z,5.53
2023-06-30T11:35:38.180Z,6.78
2023-06-30T11:38:09.439Z,5.88
2023-06-30T11:40:36.404Z,6.20
2023-06-30T11:43:04.393Z,6.55
2023-06-30T11:45:31.670Z,7.07
2023-06-30T11:47:58.643Z,6.43
2023-06-30T11:50:29.118Z,6.25
2023-06-30T11:52:56.163Z,6.78
2023-06-30T11:55:25.044Z,6.80
2023-06-30T11:57:52.007Z,6.25
2023-06-30T12:00:21.173Z,6.88
2023-06-30T12:02:52.120Z,5.65
2023-06-30T12:05:24.688Z,6.15
2023-06-30T12:07:55.211Z,7.90
2023-06-30T12:10:38.210Z,6.32
2023-06-30T12:13:09.528Z,7.05
2023-06-30T12:15:40.525Z,8.07
2023-06-30T12:18:07.672Z,7.68
2023-06-30T12:20:42.363Z,5.95
2023-06-30T12:23:09.294Z,7.80
2023-06-30T12:25:37.488Z,6.32
2023-06-30T12:28:10.397Z,8.18
2023-06-30T12:33:07.682Z,6.68
2023-06-30T12:35:43.954Z,6.60
2023-06-30T12:38:11.287Z,6.22
2023-06-30T12:40:40.345Z,7.10
2023-06-30T12:43:08.924Z,8.15
2023-06-30T12:45:37.647Z,7.57
2023-06-30T12:48:05.260Z,8.15
2023-06-30T12:50:33.526Z,6.50
2023-06-30T12:53:03.490Z,5.82
2023-06-30T12:55:33.456Z,6.93
2023-06-30T12:58:00.339Z,7.25
2023-06-30T13:00:27.680Z,7.47
2023-06-30T13:02:56.065Z,7.10
2023-06-30T13:05:23.055Z,7.75
2023-06-30T13:07:49.990Z,6.95
2023-06-30T13:10:22.830Z,6.35
2023-06-30T13:12:49.751Z,8.18
2023-06-30T13:15:16.770Z,9.32
2023-06-30T13:17:43.738Z,6.75
2023-06-30T13:20:11.558Z,7.07
2023-06-30T13:22:50.784Z,6.95
2023-06-30T13:25:26.373Z,6.95
2023-06-30T13:27:54.329Z,10.05
2023-06-30T13:30:21.248Z,6.45
2023-06-30T13:32:48.283Z,8.57
2023-06-30T13:35:15.239Z,7.00
2023-06-30T13:37:42.159Z,7.63
2023-06-30T13:40:09.681Z,6.80
2023-06-30T13:42:37.684Z,8.23
2023-06-30T13:45:09.479Z,7.55
2023-06-30T13:47:38.329Z,6.88
2023-06-30T13:50:05.813Z,6.90
2023-06-30T13:52:33.230Z,8.23
2023-06-30T13:55:00.528Z,7.80
2023-06-30T13:57:27.498Z,8.23
2023-06-30T13:59:54.419Z,8.40
2023-06-30T14:02:22.218Z,9.60
2023-06-30T14:04:49.443Z,8.23
2023-06-30T14:07:17.054Z,8.73
2023-06-30T14:09:44.045Z,8.35
2023-06-30T14:12:11.001Z,10.73
2023-06-30T14:14:37.870Z,10.02
2023-06-30T14:17:05.015Z,10.48
2023-06-30T14:19:32.065Z,10.70
2023-06-30T14:21:59.521Z,10.27
2023-06-30T14:24:26.582Z,11.30
2023-06-30T14:26:53.759Z,9.43
2023-06-30T14:29:20.731Z,10.55
2023-06-30T14:31:48.283Z,8.98
2023-06-30T14:34:15.418Z,12.48
2023-06-30T14:36:42.469Z,13.05
2023-06-30T14:39:10.815Z,7.80
2023-06-30T14:41:40.056Z,9.93
2023-06-30T14:44:09.252Z,9.18
2023-06-30T14:46:36.462Z,10.27
2023-06-30T14:49:05.361Z,8.38
2023-06-30T14:51:32.482Z,10.38
2023-06-30T14:53:59.439Z,9.77
2023-06-30T14:56:26.371Z,12.27
2023-06-30T14:58:56.833Z,11.02
2023-06-30T15:01:25.924Z,13.00
2023-06-30T15:03:52.966Z,11.65
2023-06-30T15:06:20.009Z,11.10
2023-06-30T15:08:47.118Z,10.55
2023-06-30T15:11:14.142Z,8.75
2023-06-30T15:13:41.062Z,10.23
2023-06-30T15:16:11.128Z,8.35
2023-06-30T15:18:38.087Z,9.55
2023-06-30T15:21:05.979Z,8.15
2023-06-30T15:23:33.482Z,7.43
2023-06-30T15:26:06.119Z,9.95
2023-06-30T15:28:33.995Z,8.23
2023-06-30T15:31:04.077Z,7.72
2023-06-30T15:33:31.636Z,9.18
2023-06-30T15:35:59.020Z,8.25
2023-06-30T15:38:25.926Z,8.75
2023-06-30T15:40:59.406Z,8.40
2023-06-30T15:43:26.845Z,9.85
2023-06-30T15:45:57.357Z,8.48
2023-06-30T15:48:24.490Z,7.50
2023-06-30T15:50:51.502Z,9.95
2023-06-30T15:53:18.454Z,9.45
2023-06-30T15:55:45.708Z,9.38
2023-06-30T15:58:12.760Z,9.55
2023-06-30T16:00:39.839Z,9.32
2023-06-30T16:03:06.878Z,11.05
2023-06-30T16:05:35.200Z,10.10
2023-06-30T16:08:03.641Z,9.57
2023-06-30T16:10:30.601Z,11.15
2023-06-30T16:12:57.624Z,10.93
2023-06-30T16:15:24.962Z,10.68
2023-06-30T16:17:51.918Z,9.98
2023-06-30T16:20:18.933Z,10.18
2023-06-30T16:22:46.780Z,9.65
2023-06-30T16:25:13.727Z,10.10
2023-06-30T16:27:40.713Z,11.75
2023-06-30T16:30:33.239Z,11.27
2023-06-30T16:33:01.847Z,13.82
2023-06-30T16:35:34.527Z,11.65
2023-06-30T16:38:02.452Z,12.65
2023-06-30T16:40:29.457Z,13.07
2023-06-30T16:42:56.655Z,12.60
2023-06-30T16:45:24.500Z,13.10
2023-06-30T16:47:52.087Z,12.05
2023-06-30T16:50:19.180Z,12.75
2023-06-30T16:52:46.415Z,11.13
2023-06-30T16:55:13.754Z,13.60
2023-06-30T16:57:40.885Z,13.13
2023-06-30T17:00:09.998Z,11.95
2023-06-30T17:02:40.542Z,12.63
2023-06-30T17:05:08.306Z,11.27
2023-06-30T17:07:35.803Z,10.85
2023-06-30T17:10:05.617Z,13.57
2023-06-30T17:12:36.139Z,13.43
2023-06-30T17:15:03.248Z,13.00
2023-06-30T17:17:31.005Z,11.20
2023-06-30T17:19:57.948Z,11.82
2023-06-30T17:22:24.908Z,8.75
2023-06-30T17:24:54.208Z,12.55
2023-06-30T17:27:26.056Z,13.85
2023-06-30T17:29:53.105Z,12.30
2023-06-30T17:32:23.016Z,11.05
2023-06-30T17:34:50.023Z,14.70
2023-06-30T17:37:17.133Z,12.35
2023-06-30T17:39:44.027Z,12.57
2023-06-30T17:42:10.996Z,15.25
2023-06-30T17:44:38.708Z,13.52
2023-06-30T17:47:06.017Z,16.80
2023-06-30T17:49:36.872Z,13.80
2023-06-30T17:52:04.208Z,16.17
2023-06-30T17:54:35.203Z,12.88
2023-06-30T17:57:02.253Z,13.75
2023-06-30T17:59:33.296Z,13.48
2023-06-30T18:02:00.443Z,12.65
2023-06-30T18:04:27.642Z,12.10
2023-06-30T18:07:11.786Z,13.57
2023-06-30T18:09:42.460Z,12.55
2023-06-30T18:12:10.657Z,12.98
2023-06-30T18:14:38.677Z,12.95
2023-06-30T18:17:06.130Z,12.13
2023-06-30T18:19:33.377Z,15.68
2023-06-30T18:22:00.436Z,11.90
2023-06-30T18:24:27.413Z,12.68
2023-06-30T18:26:54.522Z,15.05
2023-06-30T18:29:24.094Z,15.07
2023-06-30T18:31:51.778Z,13.60
2023-06-30T18:34:20.124Z,14.60
2023-06-30T18:36:47.449Z,12.60
2023-06-30T18:39:15.040Z,20.00
2023-06-30T18:41:42.858Z,13.18
2023-06-30T18:44:09.755Z,13.38
2023-06-30T18:46:37.025Z,13.15
2023-06-30T18:49:07.165Z,12.75
2023-06-30T18:51:36.017Z,14.00
2023-06-30T18:54:02.962Z,12.70
2023-06-30T18:56:30.173Z,11.82
2023-06-30T18:59:04.312Z,13.02
2023-06-30T19:01:31.404Z,12.38
2023-06-30T19:03:58.565Z,13.32
2023-06-30T19:06:26.510Z,13.77
2023-06-30T19:08:54.752Z,13.30
2023-06-30T19:11:23.872Z,14.65
2023-06-30T19:13:51.482Z,13.57
2023-06-30T19:16:18.907Z,12.93
2023-06-30T19:18:46.679Z,11.75
2023-06-30T19:21:13.566Z,13.93
2023-06-30T19:23:41.989Z,12.48
2023-06-30T19:26:10.289Z,13.32
2023-06-30T19:28:39.176Z,13.27
2023-06-30T19:31:06.279Z,12.05
2023-06-30T19:33:37.223Z,12.68
2023-06-30T19:36:05.621Z,10.30
2023-06-30T19:38:36.717Z,13.02
2023-06-30T19:41:03.641Z,10.35
2023-06-30T19:43:30.566Z,11.02
2023-06-30T19:45:57.550Z,14.73
2023-06-30T19:48:24.494Z,12.55
2023-06-30T19:50:51.583Z,14.60
2023-06-30T19:53:18.678Z,10.40
2023-06-30T19:55:46.440Z,12.65
2023-06-30T19:58:13.946Z,11.07
2023-06-30T20:00:40.954Z,13.55
2023-06-30T20:03:07.989Z,12.95
2023-06-30T20:05:40.194Z,14.25
2023-06-30T20:08:07.203Z,10.80
2023-06-30T20:10:35.563Z,10.07
2023-06-30T20:13:02.574Z,10.43
2023-06-30T20:15:29.650Z,11.95
2023-06-30T20:17:56.645Z,13.75
2023-06-30T20:20:23.622Z,11.07
2023-06-30T20:22:50.688Z,11.73
2023-06-30T20:25:20.129Z,10.82
2023-06-30T20:27:47.090Z,11.52
2023-06-30T20:30:16.680Z,11.25
2023-06-30T20:32:45.582Z,12.00
2023-06-30T20:35:14.812Z,12.32
2023-06-30T20:37:44.297Z,10.27
2023-06-30T20:40:11.379Z,11.45
2023-06-30T20:42:38.653Z,11.63
2023-06-30T20:45:06.255Z,9.77
2023-06-30T20:47:33.417Z,13.77
2023-06-30T20:50:01.035Z,9.85
2023-06-30T20:52:28.043Z,12.80
2023-06-30T20:54:55.143Z,11.23
2023-06-30T20:57:22.160Z,10.55
2023-06-30T20:59:49.184Z,12.15
2023-06-30T21:02:18.308Z,12.32
2023-06-30T21:04:45.276Z,11.13
2023-06-30T21:07:12.321Z,11.35
2023-06-30T21:09:39.272Z,12.73
2023-06-30T21:12:06.736Z,10.98
2023-06-30T21:14:33.711Z,11.88
2023-06-30T21:17:00.782Z,12.45
2023-06-30T21:19:27.766Z,12.65
2023-06-30T21:21:54.734Z,12.10
2023-06-30T21:24:21.648Z,12.82
2023-06-30T21:26:48.664Z,12.90
2023-06-30T21:29:15.680Z,15.57
2023-06-30T21:31:42.596Z,13.38
2023-06-30T21:34:09.541Z,10.52
2023-06-30T21:36:39.286Z,11.43
2023-06-30T21:39:06.916Z,10.07
2023-06-30T21:41:35.431Z,10.70
2023-06-30T21:44:02.440Z,10.48
2023-06-30T21:46:29.493Z,10.02
2023-06-30T21:48:56.467Z,10.00
2023-06-30T21:51:23.450Z,10.88
2023-06-30T21:53:53.271Z,12.55
2023-06-30T21:56:20.213Z,12.57
2023-06-30T21:58:47.161Z,9.80
2023-06-30T22:01:15.122Z,9.80
2023-06-30T22:03:43.524Z,12.50
2023-06-30T22:06:11.846Z,10.57
2023-06-30T22:08:38.809Z,12.60
2023-06-30T22:11:05.813Z,12.52
2023-06-30T22:13:36.936Z,14.50
2023-06-30T22:16:04.584Z,13.88
2023-06-30T22:18:31.563Z,13.90
2023-06-30T22:20:58.525Z,11.40
2023-06-30T22:23:25.903Z,11.15
2023-06-30T22:25:53.909Z,11.70
2023-06-30T22:28:20.966Z,12.60
2023-06-30T22:30:48.316Z,12.88
2023-06-30T22:33:15.972Z,13.48
2023-06-30T22:35:45.077Z,13.30
2023-06-30T22:38:12.035Z,15.63
2023-06-30T22:40:42.449Z,12.73
2023-06-30T22:43:09.463Z,13.27
2023-06-30T22:45:36.548Z,13.30
2023-06-30T22:48:05.587Z,14.27
2023-06-30T22:50:32.642Z,14.82
2023-06-30T22:53:00.111Z,14.48
2023-06-30T22:55:27.039Z,12.00
2023-06-30T22:57:53.978Z,11.32
2023-06-30T23:00:21.258Z,10.40
2023-06-30T23:02:48.232Z,11.32
2023-06-30T23:05:15.262Z,11.70
2023-06-30T23:07:42.242Z,12.40
2023-06-30T23:10:09.709Z,11.38
2023-06-30T23:12:36.802Z,10.25
2023-06-30T23:15:04.430Z,10.30
2023-06-30T23:17:33.992Z,11.80
2023-06-30T23:20:01.053Z,13.15
2023-06-30T23:22:30.798Z,13.60
2023-06-30T23:24:57.900Z,15.90
2023-06-30T23:27:26.062Z,13.18
2023-06-30T23:29:53.824Z,10.27
2023-06-30T23:32:21.625Z,11.27
2023-06-30T23:34:49.099Z,11.05
2023-06-30T23:37:18.554Z,14.50
2023-06-30T23:39:51.691Z,11.95
2023-06-30T23:42:19.066Z,11.73
2023-06-30T23:44:46.203Z,11.90
2023-06-30T23:47:15.516Z,12.95
2023-06-30T23:49:42.956Z,11.38
2023-06-30T23:52:10.712Z,12.65
2023-06-30T23:54:37.781Z,12.10
2023-06-30T23:57:05.579Z,11.57
2023-06-30T23:59:32.488Z,11.10
